Weather at Patterson Landing Strip [CLOSED]

Public forecast

Using degrees Fahrenheit for public forecast. Weather courtesy of forecast.io.

Closest aviation weather report (METAR) to Patterson Landing Strip

Closest report is Buckeye Municipal Airport, 14.3 nm (26.4 km) N. Retrieved 2021/06/25 03:55 UTC (20 minutes ago):

KBXK 250355Z AUTO 33006KT 10SM 35/11 A2979 RMK A01

Closest aviation forecast (TAF) to Patterson Landing Strip

Closest forecast is Luke Air Force Base, 25.6 nm (47.5 km) NE. Retrieved 2021-06-25 04:06 UTC (9 minutes ago):

TAF TAF KLUF 250400Z 2504/2610 VRB06KT 9999 FEW150 QNH2976INS BECMG 2519/2520 21012G20KT 9999 SKC QNH2968INS WND VRB06KT AFT 2602 TX40/2523Z TN27/2512Z